Time;durP1;ratioP1;P1;durP2;ratioP2;P2;SDS_P1;SDS_P2;PMS_P1;PMS_P2;Temp;Humidity;BMP_temperature;BMP_pressure;BME280_temperature;BME280_humidity;BME280_pressure;Samples;Min_cycle;Max_cycle;Signal;HPM_P1;HPM_P2
2022/08/15 00:02:04;;;;;;;23.90;15.63;;;;;;;;;;6193404;28;20092;-82
2022/08/15 00:05:04;;;;;;;27.13;15.93;;;;;;;;;;6192963;28;20129;-83
2022/08/15 00:08:06;;;;;;;20.47;15.17;;;;;;;;;;6194181;28;20029;-82
2022/08/15 00:11:12;;;;;;;22.23;14.98;;;;;;;;;;6198551;28;20068;-82
2022/08/15 00:14:15;;;;;;;29.75;17.10;;;;;;;;;;6192220;28;20022;-82
2022/08/15 00:17:16;;;;;;;26.67;16.58;;;;;;;;;;6190828;28;20490;-82
2022/08/15 00:20:17;;;;;;;23.53;15.13;;;;;;;;;;6195200;28;20080;-82
2022/08/15 00:23:19;;;;;;;28.20;17.90;;;;;;;;;;6187390;28;20031;-82
2022/08/15 00:26:19;;;;;;;25.05;16.90;;;;;;;;;;6196203;28;20394;-82
2022/08/15 00:29:20;;;;;;;24.33;16.00;;;;;;;;;;6183353;28;20027;-82
2022/08/15 00:32:23;;;;;;;23.48;16.50;;;;;;;;;;6183304;28;20037;-82
2022/08/15 00:35:36;;;;;;;24.50;16.38;;;;;;;;;;6194512;28;20026;-82
2022/08/15 00:38:37;;;;;;;27.95;16.95;;;;;;;;;;6193806;28;20033;-82
2022/08/15 00:41:40;;;;;;;33.00;17.93;;;;;;;;;;6188527;28;20022;-82
2022/08/15 00:44:43;;;;;;;24.67;16.88;;;;;;;;;;6198272;28;20030;-82
2022/08/15 00:48:41;;;;;;;26.27;17.25;;;;;;;;;;6190790;28;20022;-82
2022/08/15 00:51:06;;;;;;;30.45;18.42;;;;;;;;;;6193681;28;20033;-82
2022/08/15 00:54:19;;;;;;;28.92;17.85;;;;;;;;;;6197553;28;20078;-82
2022/08/15 00:57:24;;;;;;;30.20;17.40;;;;;;;;;;6196535;28;20450;-81
2022/08/15 01:00:26;;;;;;;26.83;17.25;;;;;;;;;;6193323;28;20030;-81
2022/08/15 01:03:28;;;;;;;27.33;15.23;;;;;;;;;;6182349;28;20456;-82
2022/08/15 01:06:33;;;;;;;27.80;16.35;;;;;;;;;;6195253;28;20427;-82
2022/08/15 01:09:35;;;;;;;23.05;16.40;;;;;;;;;;6187373;28;20441;-82
2022/08/15 01:12:37;;;;;;;23.88;17.42;;;;;;;;;;6186623;28;20022;-81
2022/08/15 01:15:37;;;;;;;22.38;16.52;;;;;;;;;;6196007;28;20029;-81
2022/08/15 01:18:38;;;;;;;26.13;15.67;;;;;;;;;;6190275;28;20019;-81
2022/08/15 01:21:44;;;;;;;29.63;17.00;;;;;;;;;;6206563;28;20018;-81
2022/08/15 01:24:56;;;;;;;27.40;18.75;;;;;;;;;;6191407;28;20014;-81
2022/08/15 01:28:17;;;;;;;24.50;17.63;;;;;;;;;;6194732;28;20018;-81
2022/08/15 01:31:19;;;;;;;27.67;17.17;;;;;;;;;;6182973;28;20019;-82
2022/08/15 01:34:19;;;;;;;;;;;;;;;;;;6179456;28;20014;-82
2022/08/15 01:37:20;;;;;;;26.38;15.98;;;;;;;;;;6192341;28;19956;-82
2022/08/15 01:40:26;;;;;;;26.07;17.20;;;;;;;;;;6198938;28;20045;-82
2022/08/15 01:43:30;;;;;;;24.42;15.65;;;;;;;;;;6190167;28;20015;-82
2022/08/15 01:46:32;;;;;;;25.20;16.33;;;;;;;;;;6187383;28;20089;-83
2022/08/15 01:49:38;;;;;;;24.08;16.20;;;;;;;;;;6187393;28;20034;-82
2022/08/15 01:52:49;;;;;;;29.55;18.00;;;;;;;;;;6192679;28;20019;-82
2022/08/15 01:55:59;;;;;;;27.65;17.60;;;;;;;;;;6194981;28;20105;-82
2022/08/15 01:59:02;;;;;;;27.77;17.83;;;;;;;;;;6193013;28;20587;-82
2022/08/15 02:02:04;;;;;;;31.50;18.05;;;;;;;;;;6207497;28;20050;-82
2022/08/15 02:05:05;;;;;;;25.35;17.92;;;;;;;;;;6194489;28;20022;-82
2022/08/15 02:08:05;;;;;;;26.27;18.33;;;;;;;;;;6186027;28;20043;-82
2022/08/15 02:11:10;;;;;;;32.53;17.47;;;;;;;;;;6194728;28;20469;-82
2022/08/15 02:14:11;;;;;;;27.48;17.42;;;;;;;;;;6196676;28;20033;-82
2022/08/15 02:17:12;;;;;;;26.02;17.83;;;;;;;;;;6191160;28;20364;-82
2022/08/15 02:20:13;;;;;;;32.50;17.17;;;;;;;;;;6185177;28;20085;-82
2022/08/15 02:23:14;;;;;;;27.65;16.27;;;;;;;;;;6190218;28;20033;-83
2022/08/15 02:26:14;;;;;;;28.43;17.40;;;;;;;;;;6196174;28;20093;-82
2022/08/15 02:29:14;;;;;;;22.17;15.73;;;;;;;;;;6193856;28;20072;-82
2022/08/15 02:32:15;;;;;;;27.83;17.90;;;;;;;;;;6197972;28;20129;-82
2022/08/15 02:35:16;;;;;;;25.37;17.90;;;;;;;;;;6194690;28;20033;-82
2022/08/15 02:38:17;;;;;;;24.77;15.77;;;;;;;;;;6192786;28;20265;-82
2022/08/15 02:41:28;;;;;;;29.42;17.25;;;;;;;;;;6186043;28;20033;-81
2022/08/15 02:44:30;;;;;;;27.30;16.67;;;;;;;;;;6190318;28;20034;-81
2022/08/15 02:47:34;;;;;;;;;;;;;;;;;;6203518;28;20025;-82
2022/08/15 02:50:35;;;;;;;25.88;16.17;;;;;;;;;;6190596;28;19952;-83
2022/08/15 02:53:36;;;;;;;;;;;;;;;;;;6181793;28;20050;-81
2022/08/15 02:56:36;;;;;;;24.77;17.47;;;;;;;;;;6191313;28;19917;-82
2022/08/15 02:59:36;;;;;;;31.67;19.00;;;;;;;;;;6190792;28;20026;-82
2022/08/15 03:02:54;;;;;;;31.33;18.70;;;;;;;;;;6189565;28;20114;-81
2022/08/15 03:05:54;;;;;;;33.30;19.70;;;;;;;;;;6176391;28;20030;-82
2022/08/15 03:09:00;;;;;;;28.10;17.63;;;;;;;;;;6192073;28;20027;-82
2022/08/15 03:12:00;;;;;;;24.35;17.98;;;;;;;;;;6195406;28;20468;-82
2022/08/15 03:15:01;;;;;;;25.77;17.07;;;;;;;;;;6200334;28;20034;-81
2022/08/15 03:18:01;;;;;;;24.60;16.10;;;;;;;;;;6196061;28;20030;-81
2022/08/15 03:21:04;;;;;;;26.00;15.83;;;;;;;;;;6191369;28;20343;-82
2022/08/15 03:24:05;;;;;;;26.90;16.23;;;;;;;;;;6199065;28;20010;-81
2022/08/15 03:27:05;;;;;;;27.10;17.90;;;;;;;;;;6198167;28;20030;-82
2022/08/15 03:30:07;;;;;;;26.83;16.50;;;;;;;;;;6191771;28;20855;-81
2022/08/15 03:33:07;;;;;;;25.33;17.60;;;;;;;;;;6187637;28;20014;-81
2022/08/15 03:36:08;;;;;;;25.70;16.37;;;;;;;;;;6199431;28;20014;-81
2022/08/15 03:39:08;;;;;;;25.40;15.67;;;;;;;;;;6197052;28;20022;-82
2022/08/15 03:42:09;;;;;;;23.93;16.93;;;;;;;;;;6190479;28;20021;-81
2022/08/15 03:45:11;;;;;;;24.60;17.00;;;;;;;;;;6195266;28;20070;-81
2022/08/15 03:48:11;;;;;;;27.38;18.48;;;;;;;;;;6187310;28;20030;-82
2022/08/15 03:51:11;;;;;;;27.33;16.20;;;;;;;;;;6175552;28;20026;-81
2022/08/15 03:54:12;;;;;;;26.70;17.47;;;;;;;;;;6193065;28;20026;-82
2022/08/15 03:57:12;;;;;;;26.67;16.80;;;;;;;;;;6199300;28;20042;-81
2022/08/15 04:00:13;;;;;;;22.77;16.40;;;;;;;;;;6190223;28;20021;-81
2022/08/15 04:03:18;;;;;;;23.70;15.13;;;;;;;;;;6199451;28;20022;-82
2022/08/15 04:06:21;;;;;;;26.65;16.42;;;;;;;;;;6184354;28;20026;-81
2022/08/15 04:09:21;;;;;;;22.60;14.85;;;;;;;;;;6198655;28;20053;-81
2022/08/15 04:12:34;;;;;;;20.50;12.67;;;;;;;;;;6195551;28;20038;-81
2022/08/15 04:15:36;;;;;;;22.73;13.80;;;;;;;;;;6195598;28;20599;-81
2022/08/15 04:18:36;;;;;;;27.08;14.98;;;;;;;;;;6188532;28;20116;-81
2022/08/15 04:21:37;;;;;;;27.47;16.57;;;;;;;;;;6194232;28;20029;-81
2022/08/15 04:24:37;;;;;;;22.87;14.93;;;;;;;;;;6192532;28;20108;-81
2022/08/15 04:27:38;;;;;;;27.50;15.17;;;;;;;;;;6182989;28;20479;-81
2022/08/15 04:30:39;;;;;;;24.73;16.57;;;;;;;;;;6192560;28;20077;-81
2022/08/15 04:33:39;;;;;;;28.60;18.20;;;;;;;;;;6184708;28;20110;-81
2022/08/15 04:36:40;;;;;;;31.30;17.37;;;;;;;;;;6196596;28;20018;-81
2022/08/15 04:39:40;;;;;;;26.33;19.20;;;;;;;;;;6188108;28;20036;-81
2022/08/15 04:42:59;;;;;;;28.73;18.83;;;;;;;;;;6191069;28;20109;-81
2022/08/15 04:46:00;;;;;;;28.67;17.92;;;;;;;;;;6192553;28;20506;-81
2022/08/15 04:49:00;;;;;;;30.50;18.80;;;;;;;;;;6191433;28;20094;-81
2022/08/15 04:52:09;;;;;;;32.00;19.50;;;;;;;;;;6192172;28;20027;-81
2022/08/15 04:55:10;;;;;;;27.05;18.13;;;;;;;;;;6195474;28;20054;-81
2022/08/15 04:58:12;;;;;;;22.93;16.67;;;;;;;;;;6193840;28;20077;-81
2022/08/15 05:01:12;;;;;;;25.52;18.35;;;;;;;;;;6191498;28;20478;-81
2022/08/15 05:04:13;;;;;;;28.53;19.80;;;;;;;;;;6191314;28;20022;-81
2022/08/15 05:07:13;;;;;;;23.60;16.83;;;;;;;;;;6194882;28;20078;-82
2022/08/15 05:10:14;;;;;;;22.03;16.63;;;;;;;;;;6195429;28;20046;-81
2022/08/15 05:13:16;;;;;;;27.83;17.92;;;;;;;;;;6192144;28;20022;-82
2022/08/15 05:16:17;;;;;;;26.08;15.18;;;;;;;;;;6184057;28;20830;-82
2022/08/15 05:19:17;;;;;;;20.43;12.87;;;;;;;;;;6189713;28;20027;-82
2022/08/15 05:22:19;;;;;;;17.60;12.53;;;;;;;;;;6192757;28;20538;-83
2022/08/15 05:25:21;;;;;;;20.30;12.10;;;;;;;;;;6193793;28;20015;-82
2022/08/15 05:28:22;;;;;;;19.23;13.57;;;;;;;;;;6184276;28;20018;-82
2022/08/15 05:31:22;;;;;;;16.15;12.30;;;;;;;;;;6192906;28;20113;-82
2022/08/15 05:34:23;;;;;;;21.20;12.53;;;;;;;;;;6191863;28;20036;-82
2022/08/15 05:37:23;;;;;;;18.83;11.90;;;;;;;;;;6197267;28;20023;-82
2022/08/15 05:40:24;;;;;;;18.77;11.43;;;;;;;;;;6199054;28;20018;-82
2022/08/15 05:43:30;;;;;;;16.17;11.25;;;;;;;;;;6194410;28;20097;-82
2022/08/15 05:46:44;;;;;;;17.08;11.40;;;;;;;;;;6193920;28;20042;-82
2022/08/15 05:49:50;;;;;;;19.77;11.45;;;;;;;;;;6198550;28;20025;-83
2022/08/15 05:53:02;;;;;;;16.65;11.38;;;;;;;;;;6190109;28;20077;-82
2022/08/15 05:56:03;;;;;;;15.65;11.18;;;;;;;;;;6203251;28;20109;-83
2022/08/15 05:59:09;;;;;;;18.37;11.37;;;;;;;;;;6189463;28;20100;-83
2022/08/15 06:02:14;;;;;;;15.15;11.88;;;;;;;;;;6194504;28;20025;-84
2022/08/15 06:05:17;;;;;;;14.45;11.65;;;;;;;;;;6197129;28;20123;-83
2022/08/15 06:08:21;;;;;;;22.77;13.25;;;;;;;;;;6199308;28;20049;-83
2022/08/15 06:11:26;;;;;;;18.15;13.07;;;;;;;;;;6195495;28;20019;-83
2022/08/15 06:14:26;;;;;;;17.52;12.70;;;;;;;;;;6209400;28;20023;-83
2022/08/15 06:17:31;;;;;;;22.17;12.60;;;;;;;;;;6191365;28;20086;-83
2022/08/15 06:20:38;;;;;;;23.33;13.45;;;;;;;;;;6195500;28;20041;-84
2022/08/15 06:23:38;;;;;;;18.58;12.82;;;;;;;;;;6195902;28;20097;-82
2022/08/15 06:26:41;;;;;;;17.27;12.77;;;;;;;;;;6185351;28;20025;-83
2022/08/15 06:30:00;;;;;;;15.63;11.30;;;;;;;;;;6187176;28;20048;-83
2022/08/15 06:33:06;;;;;;;23.38;13.85;;;;;;;;;;6195632;28;20022;-83
2022/08/15 06:36:17;;;;;;;17.63;13.32;;;;;;;;;;6184370;28;20023;-83
2022/08/15 06:39:29;;;;;;;16.65;13.55;;;;;;;;;;6188956;28;20661;-83
2022/08/15 06:42:34;;;;;;;17.88;12.65;;;;;;;;;;6188567;28;20469;-83
2022/08/15 06:45:36;;;;;;;19.02;13.32;;;;;;;;;;6187641;28;20440;-83
2022/08/15 06:48:38;;;;;;;17.83;12.75;;;;;;;;;;6185581;28;20016;-84
2022/08/15 06:51:38;;;;;;;21.73;13.90;;;;;;;;;;6190832;28;20063;-83
2022/08/15 06:54:40;;;;;;;17.38;12.82;;;;;;;;;;6191940;28;20080;-83
2022/08/15 06:57:54;;;;;;;18.02;14.82;;;;;;;;;;6199018;28;20046;-83
2022/08/15 07:01:01;;;;;;;19.58;14.38;;;;;;;;;;6192551;28;20030;-83
2022/08/15 07:04:19;;;;;;;20.02;13.98;;;;;;;;;;6197313;28;20011;-83
2022/08/15 07:07:35;;;;;;;18.20;13.48;;;;;;;;;;6196635;28;20033;-83
2022/08/15 07:10:44;;;;;;;19.60;13.10;;;;;;;;;;6194297;28;20101;-83
2022/08/15 07:13:54;;;;;;;18.38;13.75;;;;;;;;;;6197005;28;20109;-83
2022/08/15 07:17:00;;;;;;;16.17;13.30;;;;;;;;;;6199802;28;20049;-83
2022/08/15 07:20:00;;;;;;;19.40;14.50;;;;;;;;;;6199167;28;20274;-84
2022/08/15 07:23:16;;;;;;;19.60;13.55;;;;;;;;;;6199983;28;21312;-84
2022/08/15 07:26:17;;;;;;;17.77;13.88;;;;;;;;;;6212940;28;20011;-84
2022/08/15 07:29:24;;;;;;;19.87;13.80;;;;;;;;;;6199693;28;20011;-83
2022/08/15 07:32:27;;;;;;;20.90;15.13;;;;;;;;;;6200753;28;20126;-83
2022/08/15 07:35:33;;;;;;;18.17;14.13;;;;;;;;;;6202976;28;20018;-83
2022/08/15 07:38:33;;;;;;;18.88;13.30;;;;;;;;;;6211673;28;20023;-84
2022/08/15 07:41:39;;;;;;;19.10;13.90;;;;;;;;;;6190025;28;20364;-84
2022/08/15 07:44:48;;;;;;;20.10;14.23;;;;;;;;;;6199319;28;20281;-84
2022/08/15 07:47:54;;;;;;;15.38;13.35;;;;;;;;;;6187532;28;20027;-84
2022/08/15 07:51:16;;;;;;;17.13;14.38;;;;;;;;;;6193941;28;20018;-84
2022/08/15 07:54:42;;;;;;;18.10;13.13;;;;;;;;;;6191371;28;20038;-83
2022/08/15 07:57:57;;;;;;;17.15;13.35;;;;;;;;;;6198697;28;20119;-83
2022/08/15 08:01:12;;;;;;;16.70;12.98;;;;;;;;;;6198225;28;20513;-84
2022/08/15 08:04:15;;;;;;;18.30;14.25;;;;;;;;;;6196262;28;20431;-84
2022/08/15 08:07:30;;;;;;;17.40;14.23;;;;;;;;;;6199458;28;20479;-83
2022/08/15 08:10:38;;;;;;;21.45;15.32;;;;;;;;;;6199247;28;20030;-84
2022/08/15 08:13:47;;;;;;;18.08;13.85;;;;;;;;;;6200313;28;20054;-84
2022/08/15 08:16:55;;;;;;;23.15;14.77;;;;;;;;;;6200823;28;20042;-84
2022/08/15 08:20:03;;;;;;;20.27;13.70;;;;;;;;;;6198126;28;20138;-84
2022/08/15 08:23:08;;;;;;;18.27;12.75;;;;;;;;;;6196646;28;20030;-84
2022/08/15 08:26:09;;;;;;;16.83;12.63;;;;;;;;;;6198104;28;20514;-84
2022/08/15 08:29:16;;;;;;;20.13;14.43;;;;;;;;;;6200082;28;20097;-84
2022/08/15 08:32:17;;;;;;;17.98;13.70;;;;;;;;;;6194945;28;20025;-83
2022/08/15 08:35:21;;;;;;;17.30;13.40;;;;;;;;;;6197321;28;20041;-83
2022/08/15 08:38:24;;;;;;;15.95;13.25;;;;;;;;;;6200246;28;20045;-83
2022/08/15 08:41:43;;;;;;;17.85;13.68;;;;;;;;;;6197864;28;20034;-83
2022/08/15 08:44:47;;;;;;;18.83;14.18;;;;;;;;;;6199496;28;20105;-84
2022/08/15 08:47:58;;;;;;;17.73;13.73;;;;;;;;;;6198873;28;20106;-83
2022/08/15 08:51:14;;;;;;;22.23;15.30;;;;;;;;;;6195587;28;20022;-83
2022/08/15 08:54:31;;;;;;;19.60;14.55;;;;;;;;;;6196465;28;20058;-83
2022/08/15 08:57:36;;;;;;;21.42;15.68;;;;;;;;;;6198358;28;20046;-83
2022/08/15 09:00:39;;;;;;;22.20;14.38;;;;;;;;;;6191392;28;20010;-83
2022/08/15 09:03:41;;;;;;;17.20;14.38;;;;;;;;;;6188016;28;20113;-83
2022/08/15 09:06:42;;;;;;;18.50;13.57;;;;;;;;;;6181452;28;20493;-83
2022/08/15 09:09:43;;;;;;;19.50;14.27;;;;;;;;;;6189272;28;20031;-83
2022/08/15 09:16:10;;;;;;;23.27;14.65;;;;;;;;;;6195185;28;20029;-83
2022/08/15 09:19:26;;;;;;;22.83;15.60;;;;;;;;;;6197699;28;20096;-83
2022/08/15 09:22:26;;;;;;;20.83;15.32;;;;;;;;;;6211046;28;20152;-83
2022/08/15 09:25:29;;;;;;;20.83;15.70;;;;;;;;;;6194836;28;20018;-83
2022/08/15 09:28:39;;;;;;;20.23;15.82;;;;;;;;;;6196048;28;20022;-83
2022/08/15 09:31:41;;;;;;;20.48;15.93;;;;;;;;;;6209752;28;20034;-83
2022/08/15 09:35:01;;;;;;;24.05;16.50;;;;;;;;;;6198059;28;20049;-83
2022/08/15 09:38:10;;;;;;;19.52;15.80;;;;;;;;;;6188837;28;20045;-83
2022/08/15 09:41:20;;;;;;;19.50;14.77;;;;;;;;;;6190776;28;20057;-83
2022/08/15 09:44:30;;;;;;;21.83;15.40;;;;;;;;;;6197718;28;20025;-84
2022/08/15 09:47:33;;;;;;;22.75;15.45;;;;;;;;;;6193510;28;20034;-82
2022/08/15 09:50:34;;;;;;;21.98;15.75;;;;;;;;;;6195103;28;20025;-82
2022/08/15 09:53:37;;;;;;;19.55;15.23;;;;;;;;;;6191794;28;20118;-81
2022/08/15 09:56:37;;;;;;;22.83;15.90;;;;;;;;;;6195655;28;20053;-82
2022/08/15 09:59:37;;;;;;;;;;;;;;;;;;6198857;28;20018;-82
2022/08/15 10:02:38;;;;;;;21.77;14.52;;;;;;;;;;6196826;28;19921;-82
2022/08/15 10:05:38;;;;;;;;;;;;;;;;;;6192657;28;20022;-82
2022/08/15 10:08:53;;;;;;;20.10;14.30;;;;;;;;;;6190675;28;19993;-82
2022/08/15 10:12:06;;;;;;;18.10;14.30;;;;;;;;;;6187065;28;20084;-82
2022/08/15 10:15:30;;;;;;;20.77;14.27;;;;;;;;;;6204466;28;20026;-82
2022/08/15 10:18:30;;;;;;;19.50;13.88;;;;;;;;;;6200454;28;20038;-82
2022/08/15 10:21:39;;;;;;;21.33;14.43;;;;;;;;;;6195835;28;20396;-83
2022/08/15 10:24:39;;;;;;;21.08;13.93;;;;;;;;;;6188068;28;20022;-82
2022/08/15 10:27:39;;;;;;;;;;;;;;;;;;6199760;28;20058;-82
2022/08/15 10:30:44;;;;;;;18.55;15.13;;;;;;;;;;6196818;28;19960;-81
2022/08/15 10:33:48;;;;;;;21.27;13.45;;;;;;;;;;6193327;28;20473;-82
2022/08/15 10:37:23;;;;;;;22.77;14.48;;;;;;;;;;6195108;28;20080;-82
2022/08/15 10:40:40;;;;;;;17.05;13.20;;;;;;;;;;6155133;28;20082;-82
2022/08/15 10:43:59;;;;;;;18.38;13.45;;;;;;;;;;6199402;28;20098;-82
2022/08/15 10:47:06;;;;;;;19.77;13.57;;;;;;;;;;6203255;28;20449;-82
2022/08/15 10:50:07;;;;;;;17.65;13.50;;;;;;;;;;6201829;28;20019;-82
2022/08/15 10:53:13;;;;;;;18.88;13.23;;;;;;;;;;6194340;28;20054;-82
2022/08/15 10:56:14;;;;;;;20.70;13.07;;;;;;;;;;6185446;28;20054;-81
2022/08/15 10:59:16;;;;;;;22.75;14.30;;;;;;;;;;6188486;28;20033;-81
2022/08/15 11:02:36;;;;;;;20.33;13.73;;;;;;;;;;6198392;28;20398;-82
2022/08/15 11:05:36;;;;;;;24.35;13.90;;;;;;;;;;6194672;28;20015;-82
2022/08/15 11:08:42;;;;;;;19.38;13.52;;;;;;;;;;6186431;28;20030;-82
2022/08/15 11:11:52;;;;;;;20.58;13.57;;;;;;;;;;6196551;28;20022;-82
2022/08/15 11:14:54;;;;;;;22.50;13.63;;;;;;;;;;6199633;28;20088;-82
2022/08/15 11:18:04;;;;;;;19.38;13.48;;;;;;;;;;6200373;28;20037;-82
2022/08/15 11:21:23;;;;;;;21.45;13.13;;;;;;;;;;6193438;28;20018;-82
2022/08/15 11:24:30;;;;;;;22.05;12.48;;;;;;;;;;6212342;28;20458;-82
2022/08/15 11:27:31;;;;;;;19.88;14.07;;;;;;;;;;6195027;28;20023;-82
2022/08/15 11:30:33;;;;;;;20.35;13.60;;;;;;;;;;6194146;28;20026;-82
2022/08/15 11:33:41;;;;;;;19.60;12.75;;;;;;;;;;6194714;28;20037;-82
2022/08/15 11:36:42;;;;;;;18.35;12.35;;;;;;;;;;6185265;28;20449;-81
2022/08/15 11:39:44;;;;;;;17.50;13.15;;;;;;;;;;6195580;28;20037;-82
2022/08/15 11:42:46;;;;;;;19.50;13.32;;;;;;;;;;6188539;28;20027;-82
2022/08/15 11:45:49;;;;;;;18.92;12.82;;;;;;;;;;6193187;28;20010;-82
2022/08/15 11:48:51;;;;;;;16.75;12.75;;;;;;;;;;6201299;28;20415;-82
2022/08/15 11:51:51;;;;;;;15.73;11.65;;;;;;;;;;6192210;28;20026;-81
2022/08/15 11:55:08;;;;;;;16.27;11.13;;;;;;;;;;6194027;28;20022;-81
2022/08/15 11:58:11;;;;;;;16.13;10.68;;;;;;;;;;6183357;28;20131;-81
2022/08/15 12:01:20;;;;;;;15.15;11.20;;;;;;;;;;6183861;28;20031;-81
2022/08/15 12:04:27;;;;;;;14.70;10.65;;;;;;;;;;6190639;28;20018;-81
2022/08/15 12:07:31;;;;;;;14.35;11.18;;;;;;;;;;6184149;28;20022;-82
2022/08/15 12:10:33;;;;;;;20.88;11.95;;;;;;;;;;6188358;28;20014;-82
2022/08/15 12:13:35;;;;;;;15.70;12.20;;;;;;;;;;6193703;28;20026;-82
2022/08/15 12:16:50;;;;;;;14.93;11.55;;;;;;;;;;6200173;28;20385;-82
2022/08/15 12:19:54;;;;;;;14.75;11.15;;;;;;;;;;6188188;28;20022;-82
2022/08/15 12:22:54;;;;;;;16.20;11.63;;;;;;;;;;6196736;28;20050;-82
2022/08/15 12:25:56;;;;;;;15.27;11.23;;;;;;;;;;6197308;28;20014;-81
2022/08/15 12:28:57;;;;;;;18.05;11.65;;;;;;;;;;6195427;28;20106;-82
2022/08/15 12:32:04;;;;;;;18.17;12.32;;;;;;;;;;6198098;28;20019;-83
2022/08/15 12:35:05;;;;;;;16.17;11.82;;;;;;;;;;6194044;28;20073;-82
2022/08/15 12:38:08;;;;;;;14.27;10.48;;;;;;;;;;6207316;28;20098;-81
2022/08/15 12:41:09;;;;;;;14.30;10.95;;;;;;;;;;6197433;28;20025;-81
2022/08/15 12:44:16;;;;;;;13.00;10.20;;;;;;;;;;6195687;28;20537;-82
2022/08/15 12:47:17;;;;;;;14.77;10.88;;;;;;;;;;6195193;28;20057;-81
2022/08/15 12:50:21;;;;;;;13.63;10.48;;;;;;;;;;6205867;28;20054;-82
2022/08/15 12:53:22;;;;;;;12.80;9.90;;;;;;;;;;6188289;28;20125;-81
2022/08/15 12:56:22;;;;;;;13.15;10.15;;;;;;;;;;6191034;28;20046;-81
2022/08/15 12:59:22;;;;;;;12.23;10.35;;;;;;;;;;6193422;28;20034;-81
2022/08/15 13:02:24;;;;;;;12.48;9.43;;;;;;;;;;6191941;28;20566;-81
2022/08/15 13:05:30;;;;;;;14.27;10.10;;;;;;;;;;6196364;28;20014;-81
2022/08/15 13:08:31;;;;;;;14.65;10.38;;;;;;;;;;6191975;28;20042;-81
2022/08/15 13:11:31;;;;;;;13.93;9.10;;;;;;;;;;6201178;28;20085;-81
2022/08/15 13:14:31;;;;;;;11.90;8.90;;;;;;;;;;6190539;28;20033;-81
2022/08/15 13:17:32;;;;;;;12.07;9.03;;;;;;;;;;6199316;28;20025;-82
2022/08/15 13:23:52;;;;;;;11.25;8.18;;;;;;;;;;6193817;28;20026;-82
2022/08/15 13:26:52;;;;;;;9.57;6.20;;;;;;;;;;6196747;28;20033;-82
2022/08/15 13:29:53;;;;;;;8.97;6.27;;;;;;;;;;6191415;28;20030;-81
2022/08/15 13:32:53;;;;;;;8.50;5.75;;;;;;;;;;6197682;28;20030;-81
2022/08/15 13:35:53;;;;;;;7.20;5.47;;;;;;;;;;6194035;28;20085;-81
2022/08/15 13:38:54;;;;;;;7.77;6.00;;;;;;;;;;6191652;28;20010;-80
2022/08/15 13:41:54;;;;;;;8.38;6.20;;;;;;;;;;6192664;28;20081;-81
2022/08/15 13:44:55;;;;;;;8.37;5.30;;;;;;;;;;6191055;28;20011;-81
2022/08/15 13:47:55;;;;;;;6.50;5.17;;;;;;;;;;6190540;28;20011;-81
2022/08/15 13:50:55;;;;;;;8.90;6.13;;;;;;;;;;6193915;28;20269;-81
2022/08/15 13:53:56;;;;;;;13.13;6.20;;;;;;;;;;6197437;28;20105;-81
2022/08/15 13:57:00;;;;;;;12.38;6.13;;;;;;;;;;6197330;28;20041;-81
2022/08/15 14:00:00;;;;;;;10.60;6.50;;;;;;;;;;6196558;28;20598;-81
2022/08/15 14:03:01;;;;;;;7.50;5.57;;;;;;;;;;6201091;28;20034;-81
2022/08/15 14:06:01;;;;;;;9.18;6.13;;;;;;;;;;6192238;28;21008;-81
2022/08/15 14:09:02;;;;;;;8.67;6.27;;;;;;;;;;6200671;28;20026;-81
2022/08/15 14:12:04;;;;;;;9.10;5.65;;;;;;;;;;6196823;28;20605;-81
2022/08/15 14:15:04;;;;;;;10.20;6.05;;;;;;;;;;6200965;28;20118;-82
2022/08/15 14:18:04;;;;;;;8.23;6.03;;;;;;;;;;6199256;28;20026;-81
2022/08/15 14:21:05;;;;;;;9.63;5.80;;;;;;;;;;6195061;28;20445;-81
2022/08/15 14:24:05;;;;;;;9.05;6.07;;;;;;;;;;6196457;28;20277;-82
2022/08/15 14:27:06;;;;;;;12.00;5.93;;;;;;;;;;6192064;28;20029;-82
2022/08/15 14:30:07;;;;;;;7.82;6.10;;;;;;;;;;6192037;28;20061;-81
2022/08/15 14:33:07;;;;;;;8.13;5.53;;;;;;;;;;6190839;28;20007;-82
2022/08/15 14:36:07;;;;;;;7.70;5.90;;;;;;;;;;6197231;28;20038;-81
2022/08/15 14:39:09;;;;;;;8.63;5.82;;;;;;;;;;6195848;28;20634;-82
2022/08/15 14:42:12;;;;;;;6.32;4.85;;;;;;;;;;6198557;28;20022;-81
2022/08/15 14:45:12;;;;;;;6.82;5.15;;;;;;;;;;6187667;28;20019;-81
2022/08/15 14:48:14;;;;;;;7.28;5.25;;;;;;;;;;6196570;28;20057;-81
2022/08/15 14:51:16;;;;;;;12.57;5.35;;;;;;;;;;6195565;28;20045;-81
2022/08/15 14:54:17;;;;;;;9.02;5.38;;;;;;;;;;6195166;28;20093;-81
2022/08/15 14:57:20;;;;;;;9.73;5.95;;;;;;;;;;6190059;28;20885;-81
2022/08/15 15:00:20;;;;;;;10.98;6.10;;;;;;;;;;6191599;28;20018;-81
2022/08/15 15:03:21;;;;;;;9.50;5.47;;;;;;;;;;6197395;28;20685;-81
2022/08/15 15:06:23;;;;;;;8.88;6.45;;;;;;;;;;6199342;28;20245;-81
2022/08/15 15:09:23;;;;;;;9.13;6.43;;;;;;;;;;6194378;28;20026;-81
2022/08/15 15:12:24;;;;;;;10.67;7.20;;;;;;;;;;6195040;28;20733;-81
2022/08/15 15:15:24;;;;;;;10.85;7.25;;;;;;;;;;6196677;28;20112;-81
2022/08/15 15:18:24;;;;;;;8.68;6.05;;;;;;;;;;6197691;28;20511;-81
2022/08/15 15:21:25;;;;;;;9.43;5.17;;;;;;;;;;6193395;28;20025;-81
2022/08/15 15:24:25;;;;;;;7.88;5.95;;;;;;;;;;6186036;28;20010;-80
2022/08/15 15:27:26;;;;;;;9.60;6.20;;;;;;;;;;6186376;28;20015;-81
2022/08/15 15:30:26;;;;;;;8.10;5.37;;;;;;;;;;6200156;28;20042;-81
2022/08/15 15:33:29;;;;;;;8.67;6.53;;;;;;;;;;6187245;28;20014;-80
2022/08/15 15:36:36;;;;;;;9.55;5.70;;;;;;;;;;6187900;28;20074;-80
2022/08/15 15:39:36;;;;;;;7.93;5.88;;;;;;;;;;6195813;28;20010;-80
2022/08/15 15:42:37;;;;;;;9.05;6.78;;;;;;;;;;6195149;28;20074;-80
2022/08/15 15:45:39;;;;;;;10.35;6.47;;;;;;;;;;6193365;28;20018;-80
2022/08/15 15:48:42;;;;;;;9.45;6.40;;;;;;;;;;6201052;28;20014;-80
2022/08/15 15:51:42;;;;;;;9.10;6.57;;;;;;;;;;6183371;28;20123;-79
2022/08/15 15:54:43;;;;;;;12.73;8.00;;;;;;;;;;6193974;28;20031;-80
2022/08/15 15:57:43;;;;;;;9.65;6.30;;;;;;;;;;6190114;28;20422;-80
2022/08/15 16:00:44;;;;;;;9.93;6.87;;;;;;;;;;6196474;28;20485;-80
2022/08/15 16:03:44;;;;;;;9.70;6.95;;;;;;;;;;6190128;28;20034;-80
2022/08/15 16:06:44;;;;;;;;;;;;;;;;;;6196690;28;20479;-80
2022/08/15 16:09:45;;;;;;;11.45;7.38;;;;;;;;;;6188786;28;19910;-80
2022/08/15 16:12:45;;;;;;;;;;;;;;;;;;6188896;28;20439;-80
2022/08/15 16:15:56;;;;;;;13.05;8.10;;;;;;;;;;6190544;28;19913;-80
2022/08/15 16:19:00;;;;;;;12.60;6.68;;;;;;;;;;6192448;28;20070;-80
2022/08/15 16:22:04;;;;;;;10.30;7.70;;;;;;;;;;6176939;28;20422;-79
2022/08/15 16:25:14;;;;;;;11.15;7.60;;;;;;;;;;6183792;28;20023;-79
2022/08/15 16:28:20;;;;;;;10.23;7.75;;;;;;;;;;6188775;28;20026;-79
2022/08/15 16:31:30;;;;;;;11.82;8.65;;;;;;;;;;6193779;28;20501;-79
2022/08/15 16:34:37;;;;;;;14.32;9.73;;;;;;;;;;6189888;28;20038;-79
2022/08/15 16:37:40;;;;;;;13.95;10.10;;;;;;;;;;6191688;28;20019;-79
2022/08/15 16:40:42;;;;;;;16.35;10.02;;;;;;;;;;6181371;28;20110;-79
2022/08/15 16:43:46;;;;;;;14.20;10.07;;;;;;;;;;6190121;28;20026;-79
2022/08/15 16:46:53;;;;;;;14.07;9.75;;;;;;;;;;6188153;28;20407;-79
2022/08/15 16:50:02;;;;;;;10.88;8.50;;;;;;;;;;6192999;28;20027;-79
2022/08/15 16:53:16;;;;;;;14.13;9.50;;;;;;;;;;6193744;28;19998;-79
2022/08/15 16:56:26;;;;;;;13.80;9.63;;;;;;;;;;6194923;28;20046;-79
2022/08/15 16:59:38;;;;;;;12.57;8.73;;;;;;;;;;6183153;28;20018;-79
2022/08/15 17:02:54;;;;;;;11.90;9.00;;;;;;;;;;6189389;28;20014;-79
2022/08/15 17:06:13;;;;;;;14.02;9.68;;;;;;;;;;6189799;28;20018;-79
2022/08/15 17:09:21;;;;;;;15.43;9.95;;;;;;;;;;6178525;28;20030;-78
2022/08/15 17:12:23;;;;;;;13.88;9.60;;;;;;;;;;6190175;28;20074;-79
2022/08/15 17:15:34;;;;;;;15.90;10.43;;;;;;;;;;6190100;28;20034;-79
2022/08/15 17:18:41;;;;;;;15.90;11.65;;;;;;;;;;6190838;28;20026;-79
2022/08/15 17:21:55;;;;;;;12.20;9.10;;;;;;;;;;6188446;28;20027;-78
2022/08/15 17:25:02;;;;;;;14.77;10.65;;;;;;;;;;6187611;28;20022;-78
2022/08/15 17:28:06;;;;;;;13.60;10.00;;;;;;;;;;6184560;28;20022;-78
2022/08/15 17:31:08;;;;;;;14.27;10.40;;;;;;;;;;6196650;28;20102;-78
2022/08/15 17:34:22;;;;;;;14.52;10.48;;;;;;;;;;6188741;28;20443;-78
2022/08/15 17:37:23;;;;;;;14.63;10.45;;;;;;;;;;6184508;28;20027;-78
2022/08/15 17:40:35;;;;;;;16.13;10.25;;;;;;;;;;6194586;28;20041;-78
2022/08/15 17:43:43;;;;;;;14.60;10.68;;;;;;;;;;6208022;28;20019;-78
2022/08/15 17:46:47;;;;;;;16.25;11.07;;;;;;;;;;6187500;28;20010;-78
2022/08/15 17:49:53;;;;;;;14.68;9.98;;;;;;;;;;6196881;28;20021;-78
2022/08/15 17:53:09;;;;;;;13.77;10.63;;;;;;;;;;6189022;28;20029;-78
2022/08/15 17:56:14;;;;;;;14.57;9.73;;;;;;;;;;6192365;28;20078;-78
2022/08/15 17:59:17;;;;;;;13.80;9.60;;;;;;;;;;6182069;28;20046;-78
2022/08/15 18:02:19;;;;;;;13.43;10.07;;;;;;;;;;6192552;28;20035;-78
2022/08/15 18:05:22;;;;;;;13.80;9.77;;;;;;;;;;6187512;28;20015;-77
2022/08/15 18:08:25;;;;;;;15.07;11.30;;;;;;;;;;6190750;28;20033;-78